Reading, MA (01867)

9:05 AM EDT on October 21, 2014 (GMT -0400)
KMAREADI3 | Change Station
CLOSE
Current Station
Personal Weather Station
Location: Reading, MA
Elevation: 23 m
Nearby Weather Stations

Elev 23 m 42.54 °N, 71.09 °W | Updated 6 minutes ago

Overcast
Overcast
8.7 °C
Feels Like 9 °C
N
0.0
Wind Variable Wind from SSE
Gusts 3.2 km/h

Today
High -- | Low -- °C
--% Chance of Precip.
Yesterday
High -- | Low -- °C
Precip. -- mm
7:04 AM 5:52 PM
Waning Crescent, 6% visible
Pressure 1017 hPa
Visibility 16.1 kilometers
Clouds Overcast 1219 m
Windchill 9 °C
Dew Point 8 °C
Humidity 95%
Rainfall 0 mm
Snow Depth Not available.
UV 0 out of 12
Pollen .30 out of 12
Ozone Good
PM2.5 Good
Flu Activity No Activity
METAR KBED 211256Z 31003KT 10SM OVC040 08/07 A2998 RMK AO2 SLP166 T00830067

More Conditions Fewer Conditions

Pressure 1017 hPa
Visibility 16.1 kilometers
Clouds Overcast 1219 m
Windchill 9 °C
Dew Point 8 °C
Humidity 95%
Rainfall 0 mm
Snow Depth Not available.
UV 0 out of 12
Pollen .30 out of 12
Ozone Good
PM2.5 Good
Flu Activity No Activity
METAR KBED 211256Z 31003KT 10SM OVC040 08/07 A2998 RMK AO2 SLP166 T00830067

More Conditions Fewer Conditions

10-Day Weather Forecast

Almanac

Astronomy

Oct. 21, 2014 Rise Set
Actual Time 7:04 AM EDT 5:52 PM EDT
Civil Twilight 6:35 AM EDT 6:21 PM EDT
Nautical Twilight 6:03 AM EDT 6:54 PM EDT
Astronomical Twilight 5:30 AM EDT 7:26 PM EDT
Moon 4:43 AM EDT 4:47 PM EDT
Length of Visible Light 11h 45m
Length of Day
10h 48m
Tomorrow will be 2m 42s shorter.
Waning Crescent, 6% of the Moon is Illuminated
Today
Waning Crescent
Oct 23
New
Oct 30
First Quarter
Nov 6
Full
Nov 14
Last Quarter

Today's Extremes

State Highs State Lows

Community

WunderPhotos

Upload Photos

1,763,656 photos uploaded!

Nearby

Air Quality

  Air Quality AQ Index Pollutant
Yesterday Good
OZONE
Yesterday Good
PM2.5
Current Good
PM2.5
Current Good
OZONE
Tuesday Good
PM2.5
Wednesday Good
PM2.5
Thursday Good
PM2.5

Snow Depth

Station Depth Elevation
No new snow has been reported.

Earthquake Activity

City Distance Mag. Time & Date
No recent earthquake activity has been reported nearby.
Minimum magnitude displayed is 2.5.

Coastal Water Temperatures

Place Temperature
Boston, MA 13.9 °C
Providence, RI 16.1 °C
Fall River, MA 17.2 °C
Conimicut Light, RI 16.1 °C

Nearby Weather Stations